sensor_id;sensor_type;location;lat;lon;timestamp;P1;durP1;ratioP1;P2;durP2;ratioP2
57055;SDS011;42945;51.718;5.324;2023-06-22T00:00:59;8.25;;;6.57;;
57055;SDS011;42945;51.718;5.324;2023-06-22T00:03:25;9.38;;;5.72;;
57055;SDS011;42945;51.718;5.324;2023-06-22T00:05:51;12.50;;;6.95;;
57055;SDS011;42945;51.718;5.324;2023-06-22T00:08:17;10.07;;;6.90;;
57055;SDS011;42945;51.718;5.324;2023-06-22T00:10:44;12.95;;;6.97;;
57055;SDS011;42945;51.718;5.324;2023-06-22T00:13:10;10.57;;;7.10;;
57055;SDS011;42945;51.718;5.324;2023-06-22T00:15:36;10.45;;;8.05;;
57055;SDS011;42945;51.718;5.324;2023-06-22T00:18:04;11.48;;;7.30;;
57055;SDS011;42945;51.718;5.324;2023-06-22T00:20:31;10.52;;;7.72;;
57055;SDS011;42945;51.718;5.324;2023-06-22T00:22:57;14.15;;;8.60;;
57055;SDS011;42945;51.718;5.324;2023-06-22T00:25:24;14.50;;;8.13;;
57055;SDS011;42945;51.718;5.324;2023-06-22T00:27:49;12.50;;;9.00;;
57055;SDS011;42945;51.718;5.324;2023-06-22T00:30:15;14.85;;;9.52;;
57055;SDS011;42945;51.718;5.324;2023-06-22T00:32:42;15.93;;;10.13;;
57055;SDS011;42945;51.718;5.324;2023-06-22T00:35:08;15.23;;;9.13;;
57055;SDS011;42945;51.718;5.324;2023-06-22T00:37:35;14.63;;;9.75;;
57055;SDS011;42945;51.718;5.324;2023-06-22T00:40:01;14.85;;;9.68;;
57055;SDS011;42945;51.718;5.324;2023-06-22T00:42:27;19.10;;;9.73;;
57055;SDS011;42945;51.718;5.324;2023-06-22T00:44:53;13.98;;;10.00;;
57055;SDS011;42945;51.718;5.324;2023-06-22T00:47:18;13.88;;;9.82;;
57055;SDS011;42945;51.718;5.324;2023-06-22T00:49:44;14.98;;;9.30;;
57055;SDS011;42945;51.718;5.324;2023-06-22T00:52:11;14.52;;;9.93;;
57055;SDS011;42945;51.718;5.324;2023-06-22T00:54:41;17.00;;;10.05;;
57055;SDS011;42945;51.718;5.324;2023-06-22T00:57:10;21.93;;;10.70;;
57055;SDS011;42945;51.718;5.324;2023-06-22T00:59:37;19.27;;;10.30;;
57055;SDS011;42945;51.718;5.324;2023-06-22T01:02:03;18.13;;;10.43;;
57055;SDS011;42945;51.718;5.324;2023-06-22T01:04:34;17.50;;;10.93;;
57055;SDS011;42945;51.718;5.324;2023-06-22T01:07:09;17.90;;;11.20;;
57055;SDS011;42945;51.718;5.324;2023-06-22T01:10:03;14.85;;;11.10;;
57055;SDS011;42945;51.718;5.324;2023-06-22T01:12:40;14.63;;;11.10;;
57055;SDS011;42945;51.718;5.324;2023-06-22T01:15:13;17.48;;;11.45;;
57055;SDS011;42945;51.718;5.324;2023-06-22T01:18:00;17.52;;;11.02;;
57055;SDS011;42945;51.718;5.324;2023-06-22T01:20:29;16.65;;;11.43;;
57055;SDS011;42945;51.718;5.324;2023-06-22T01:23:42;15.43;;;11.05;;
57055;SDS011;42945;51.718;5.324;2023-06-22T01:26:08;15.02;;;10.82;;
57055;SDS011;42945;51.718;5.324;2023-06-22T01:28:43;16.58;;;11.05;;
57055;SDS011;42945;51.718;5.324;2023-06-22T01:31:14;20.73;;;11.52;;
57055;SDS011;42945;51.718;5.324;2023-06-22T01:33:43;17.15;;;11.77;;
57055;SDS011;42945;51.718;5.324;2023-06-22T01:36:11;15.18;;;10.93;;
57055;SDS011;42945;51.718;5.324;2023-06-22T01:38:38;16.27;;;11.85;;
57055;SDS011;42945;51.718;5.324;2023-06-22T01:41:04;18.17;;;11.30;;
57055;SDS011;42945;51.718;5.324;2023-06-22T01:43:29;18.67;;;11.70;;
57055;SDS011;42945;51.718;5.324;2023-06-22T01:45:59;17.95;;;11.60;;
57055;SDS011;42945;51.718;5.324;2023-06-22T01:48:26;21.65;;;12.27;;
57055;SDS011;42945;51.718;5.324;2023-06-22T01:50:52;17.27;;;12.07;;
57055;SDS011;42945;51.718;5.324;2023-06-22T01:53:20;17.40;;;11.90;;
57055;SDS011;42945;51.718;5.324;2023-06-22T01:55:49;18.05;;;12.57;;
57055;SDS011;42945;51.718;5.324;2023-06-22T01:58:15;25.30;;;13.15;;
57055;SDS011;42945;51.718;5.324;2023-06-22T02:00:41;24.20;;;13.65;;
57055;SDS011;42945;51.718;5.324;2023-06-22T02:03:11;25.50;;;13.40;;
57055;SDS011;42945;51.718;5.324;2023-06-22T02:05:45;19.42;;;12.15;;
57055;SDS011;42945;51.718;5.324;2023-06-22T02:08:25;22.38;;;13.70;;
57055;SDS011;42945;51.718;5.324;2023-06-22T02:10:54;21.67;;;14.05;;
57055;SDS011;42945;51.718;5.324;2023-06-22T02:13:23;19.63;;;14.52;;
57055;SDS011;42945;51.718;5.324;2023-06-22T02:15:49;19.17;;;13.88;;
57055;SDS011;42945;51.718;5.324;2023-06-22T02:18:15;20.52;;;14.95;;
57055;SDS011;42945;51.718;5.324;2023-06-22T02:20:41;24.35;;;13.43;;
57055;SDS011;42945;51.718;5.324;2023-06-22T02:23:06;22.08;;;14.13;;
57055;SDS011;42945;51.718;5.324;2023-06-22T02:25:32;20.63;;;13.77;;
57055;SDS011;42945;51.718;5.324;2023-06-22T02:27:58;24.17;;;15.13;;
57055;SDS011;42945;51.718;5.324;2023-06-22T02:30:24;22.10;;;14.43;;
57055;SDS011;42945;51.718;5.324;2023-06-22T02:32:49;22.17;;;14.60;;
57055;SDS011;42945;51.718;5.324;2023-06-22T02:35:23;22.73;;;13.85;;
57055;SDS011;42945;51.718;5.324;2023-06-22T02:37:48;22.77;;;13.50;;
57055;SDS011;42945;51.718;5.324;2023-06-22T02:40:16;23.63;;;13.93;;
57055;SDS011;42945;51.718;5.324;2023-06-22T02:42:42;21.85;;;14.65;;
57055;SDS011;42945;51.718;5.324;2023-06-22T02:45:07;21.45;;;14.50;;
57055;SDS011;42945;51.718;5.324;2023-06-22T02:47:33;21.50;;;14.73;;
57055;SDS011;42945;51.718;5.324;2023-06-22T02:49:58;20.75;;;14.70;;
57055;SDS011;42945;51.718;5.324;2023-06-22T02:52:23;23.80;;;15.10;;
57055;SDS011;42945;51.718;5.324;2023-06-22T02:54:49;20.98;;;14.43;;
57055;SDS011;42945;51.718;5.324;2023-06-22T02:57:14;24.48;;;14.10;;
57055;SDS011;42945;51.718;5.324;2023-06-22T02:59:40;21.02;;;14.48;;
57055;SDS011;42945;51.718;5.324;2023-06-22T03:02:07;21.75;;;14.25;;
57055;SDS011;42945;51.718;5.324;2023-06-22T03:04:33;21.73;;;13.82;;
57055;SDS011;42945;51.718;5.324;2023-06-22T03:06:59;21.38;;;13.23;;
57055;SDS011;42945;51.718;5.324;2023-06-22T03:09:26;19.33;;;12.88;;
57055;SDS011;42945;51.718;5.324;2023-06-22T03:11:55;20.98;;;14.02;;
57055;SDS011;42945;51.718;5.324;2023-06-22T03:14:20;17.85;;;12.95;;
57055;SDS011;42945;51.718;5.324;2023-06-22T03:16:46;21.60;;;13.73;;
57055;SDS011;42945;51.718;5.324;2023-06-22T03:19:11;20.40;;;13.27;;
57055;SDS011;42945;51.718;5.324;2023-06-22T03:21:37;19.63;;;12.75;;
57055;SDS011;42945;51.718;5.324;2023-06-22T03:24:06;23.38;;;13.00;;
57055;SDS011;42945;51.718;5.324;2023-06-22T03:26:32;19.38;;;12.50;;
57055;SDS011;42945;51.718;5.324;2023-06-22T03:28:58;18.55;;;11.75;;
57055;SDS011;42945;51.718;5.324;2023-06-22T03:31:23;22.25;;;12.10;;
57055;SDS011;42945;51.718;5.324;2023-06-22T03:33:49;19.35;;;11.82;;
57055;SDS011;42945;51.718;5.324;2023-06-22T03:36:15;20.38;;;12.82;;
57055;SDS011;42945;51.718;5.324;2023-06-22T03:38:45;20.42;;;11.40;;
57055;SDS011;42945;51.718;5.324;2023-06-22T03:41:11;19.30;;;12.15;;
57055;SDS011;42945;51.718;5.324;2023-06-22T03:43:36;19.75;;;11.52;;
57055;SDS011;42945;51.718;5.324;2023-06-22T03:46:01;19.88;;;11.52;;
57055;SDS011;42945;51.718;5.324;2023-06-22T03:48:27;17.48;;;11.77;;
57055;SDS011;42945;51.718;5.324;2023-06-22T03:50:52;18.02;;;11.05;;
57055;SDS011;42945;51.718;5.324;2023-06-22T03:53:17;19.08;;;11.43;;
57055;SDS011;42945;51.718;5.324;2023-06-22T03:55:50;17.90;;;11.52;;
57055;SDS011;42945;51.718;5.324;2023-06-22T03:58:16;20.05;;;11.38;;
57055;SDS011;42945;51.718;5.324;2023-06-22T04:00:43;18.45;;;11.88;;
57055;SDS011;42945;51.718;5.324;2023-06-22T04:03:09;22.48;;;11.15;;
57055;SDS011;42945;51.718;5.324;2023-06-22T04:05:36;18.23;;;11.75;;
57055;SDS011;42945;51.718;5.324;2023-06-22T04:08:03;21.77;;;11.10;;
57055;SDS011;42945;51.718;5.324;2023-06-22T04:10:29;15.77;;;10.18;;
57055;SDS011;42945;51.718;5.324;2023-06-22T04:12:54;17.83;;;10.55;;
57055;SDS011;42945;51.718;5.324;2023-06-22T04:15:20;19.30;;;10.43;;
57055;SDS011;42945;51.718;5.324;2023-06-22T04:17:45;15.40;;;10.02;;
57055;SDS011;42945;51.718;5.324;2023-06-22T04:20:10;15.75;;;9.30;;
57055;SDS011;42945;51.718;5.324;2023-06-22T04:22:36;14.88;;;9.50;;
57055;SDS011;42945;51.718;5.324;2023-06-22T04:25:01;14.65;;;9.55;;
57055;SDS011;42945;51.718;5.324;2023-06-22T04:27:26;18.27;;;9.57;;
57055;SDS011;42945;51.718;5.324;2023-06-22T04:29:53;16.00;;;9.05;;
57055;SDS011;42945;51.718;5.324;2023-06-22T04:32:18;14.98;;;9.70;;
57055;SDS011;42945;51.718;5.324;2023-06-22T04:34:44;14.18;;;9.30;;
57055;SDS011;42945;51.718;5.324;2023-06-22T04:37:09;16.30;;;9.80;;
57055;SDS011;42945;51.718;5.324;2023-06-22T04:39:40;14.05;;;9.10;;
57055;SDS011;42945;51.718;5.324;2023-06-22T04:42:06;14.45;;;8.98;;
57055;SDS011;42945;51.718;5.324;2023-06-22T04:44:31;14.82;;;9.52;;
57055;SDS011;42945;51.718;5.324;2023-06-22T04:46:58;18.02;;;9.45;;
57055;SDS011;42945;51.718;5.324;2023-06-22T04:49:27;18.30;;;9.30;;
57055;SDS011;42945;51.718;5.324;2023-06-22T04:51:58;14.20;;;9.18;;
57055;SDS011;42945;51.718;5.324;2023-06-22T04:54:29;14.35;;;9.52;;
57055;SDS011;42945;51.718;5.324;2023-06-22T04:57:02;14.38;;;8.80;;
57055;SDS011;42945;51.718;5.324;2023-06-22T04:59:28;13.77;;;9.10;;
57055;SDS011;42945;51.718;5.324;2023-06-22T05:01:59;17.88;;;9.73;;
57055;SDS011;42945;51.718;5.324;2023-06-22T05:04:25;13.23;;;9.32;;
57055;SDS011;42945;51.718;5.324;2023-06-22T05:06:53;15.00;;;8.95;;
57055;SDS011;42945;51.718;5.324;2023-06-22T05:09:19;14.48;;;9.05;;
57055;SDS011;42945;51.718;5.324;2023-06-22T05:11:45;15.55;;;9.43;;
57055;SDS011;42945;51.718;5.324;2023-06-22T05:14:11;21.90;;;9.65;;
57055;SDS011;42945;51.718;5.324;2023-06-22T05:16:36;13.20;;;9.27;;
57055;SDS011;42945;51.718;5.324;2023-06-22T05:19:02;16.25;;;9.00;;
57055;SDS011;42945;51.718;5.324;2023-06-22T05:21:31;14.02;;;9.60;;
57055;SDS011;42945;51.718;5.324;2023-06-22T05:23:56;16.23;;;9.43;;
57055;SDS011;42945;51.718;5.324;2023-06-22T05:26:27;15.27;;;9.90;;
57055;SDS011;42945;51.718;5.324;2023-06-22T05:28:54;17.40;;;9.50;;
57055;SDS011;42945;51.718;5.324;2023-06-22T05:31:20;14.60;;;9.55;;
57055;SDS011;42945;51.718;5.324;2023-06-22T05:33:45;15.32;;;9.32;;
57055;SDS011;42945;51.718;5.324;2023-06-22T05:36:11;14.93;;;9.32;;
57055;SDS011;42945;51.718;5.324;2023-06-22T05:38:37;17.60;;;9.93;;
57055;SDS011;42945;51.718;5.324;2023-06-22T05:41:04;14.73;;;10.27;;
57055;SDS011;42945;51.718;5.324;2023-06-22T05:43:30;18.27;;;11.55;;
57055;SDS011;42945;51.718;5.324;2023-06-22T05:45:56;17.77;;;10.70;;
57055;SDS011;42945;51.718;5.324;2023-06-22T05:48:22;15.95;;;10.85;;
57055;SDS011;42945;51.718;5.324;2023-06-22T05:50:47;18.45;;;12.23;;
57055;SDS011;42945;51.718;5.324;2023-06-22T05:53:12;19.55;;;12.02;;
57055;SDS011;42945;51.718;5.324;2023-06-22T05:55:38;21.90;;;12.25;;
57055;SDS011;42945;51.718;5.324;2023-06-22T05:58:03;18.00;;;12.20;;
57055;SDS011;42945;51.718;5.324;2023-06-22T06:00:29;17.90;;;12.20;;
57055;SDS011;42945;51.718;5.324;2023-06-22T06:02:54;17.38;;;12.32;;
57055;SDS011;42945;51.718;5.324;2023-06-22T06:05:19;20.15;;;12.98;;
57055;SDS011;42945;51.718;5.324;2023-06-22T06:07:45;20.00;;;12.15;;
57055;SDS011;42945;51.718;5.324;2023-06-22T06:10:11;18.98;;;13.57;;
57055;SDS011;42945;51.718;5.324;2023-06-22T06:12:36;22.77;;;14.20;;
57055;SDS011;42945;51.718;5.324;2023-06-22T06:15:02;21.25;;;13.88;;
57055;SDS011;42945;51.718;5.324;2023-06-22T06:17:28;23.02;;;14.50;;
57055;SDS011;42945;51.718;5.324;2023-06-22T06:19:54;21.35;;;14.23;;
57055;SDS011;42945;51.718;5.324;2023-06-22T06:22:19;21.90;;;15.05;;
57055;SDS011;42945;51.718;5.324;2023-06-22T06:24:46;26.23;;;14.70;;
57055;SDS011;42945;51.718;5.324;2023-06-22T06:27:12;23.48;;;14.25;;
57055;SDS011;42945;51.718;5.324;2023-06-22T06:29:38;22.13;;;14.80;;
57055;SDS011;42945;51.718;5.324;2023-06-22T06:32:03;21.80;;;15.30;;
57055;SDS011;42945;51.718;5.324;2023-06-22T06:34:29;21.88;;;14.73;;
57055;SDS011;42945;51.718;5.324;2023-06-22T06:36:54;24.95;;;15.35;;
57055;SDS011;42945;51.718;5.324;2023-06-22T06:39:19;22.73;;;15.20;;
57055;SDS011;42945;51.718;5.324;2023-06-22T06:41:45;21.13;;;14.95;;
57055;SDS011;42945;51.718;5.324;2023-06-22T06:44:10;25.08;;;16.05;;
57055;SDS011;42945;51.718;5.324;2023-06-22T06:46:36;25.67;;;15.32;;
57055;SDS011;42945;51.718;5.324;2023-06-22T06:49:01;22.25;;;16.55;;
57055;SDS011;42945;51.718;5.324;2023-06-22T06:51:27;22.98;;;16.67;;
57055;SDS011;42945;51.718;5.324;2023-06-22T06:53:52;25.60;;;16.65;;
57055;SDS011;42945;51.718;5.324;2023-06-22T06:56:17;24.30;;;16.40;;
57055;SDS011;42945;51.718;5.324;2023-06-22T06:58:43;25.63;;;17.42;;
57055;SDS011;42945;51.718;5.324;2023-06-22T07:01:10;22.92;;;17.13;;
57055;SDS011;42945;51.718;5.324;2023-06-22T07:03:38;29.15;;;17.83;;
57055;SDS011;42945;51.718;5.324;2023-06-22T07:06:03;23.40;;;17.15;;
57055;SDS011;42945;51.718;5.324;2023-06-22T07:08:29;24.52;;;16.92;;
57055;SDS011;42945;51.718;5.324;2023-06-22T07:10:54;26.25;;;17.20;;
57055;SDS011;42945;51.718;5.324;2023-06-22T07:13:20;24.13;;;17.02;;
57055;SDS011;42945;51.718;5.324;2023-06-22T07:15:45;30.27;;;17.50;;
57055;SDS011;42945;51.718;5.324;2023-06-22T07:18:10;24.90;;;16.85;;
57055;SDS011;42945;51.718;5.324;2023-06-22T07:20:36;25.00;;;17.00;;
57055;SDS011;42945;51.718;5.324;2023-06-22T07:23:01;23.92;;;16.02;;
57055;SDS011;42945;51.718;5.324;2023-06-22T07:25:26;25.02;;;16.95;;
57055;SDS011;42945;51.718;5.324;2023-06-22T07:28:00;24.90;;;16.80;;
57055;SDS011;42945;51.718;5.324;2023-06-22T07:30:27;23.65;;;16.38;;
57055;SDS011;42945;51.718;5.324;2023-06-22T07:32:53;24.38;;;15.68;;
57055;SDS011;42945;51.718;5.324;2023-06-22T07:35:18;22.65;;;17.17;;
57055;SDS011;42945;51.718;5.324;2023-06-22T07:37:44;25.92;;;17.23;;
57055;SDS011;42945;51.718;5.324;2023-06-22T07:40:09;22.73;;;16.33;;
57055;SDS011;42945;51.718;5.324;2023-06-22T07:42:35;22.88;;;16.60;;
57055;SDS011;42945;51.718;5.324;2023-06-22T07:45:01;23.83;;;16.73;;
57055;SDS011;42945;51.718;5.324;2023-06-22T07:47:28;26.65;;;16.88;;
57055;SDS011;42945;51.718;5.324;2023-06-22T07:49:54;23.42;;;16.88;;
57055;SDS011;42945;51.718;5.324;2023-06-22T07:52:22;21.40;;;16.63;;
57055;SDS011;42945;51.718;5.324;2023-06-22T07:54:47;25.42;;;16.80;;
57055;SDS011;42945;51.718;5.324;2023-06-22T07:57:12;27.35;;;17.83;;
57055;SDS011;42945;51.718;5.324;2023-06-22T07:59:38;24.98;;;17.27;;
57055;SDS011;42945;51.718;5.324;2023-06-22T08:02:03;25.98;;;17.75;;
57055;SDS011;42945;51.718;5.324;2023-06-22T08:04:30;25.63;;;17.05;;
57055;SDS011;42945;51.718;5.324;2023-06-22T08:06:57;25.90;;;17.33;;
57055;SDS011;42945;51.718;5.324;2023-06-22T08:09:22;30.77;;;17.33;;
57055;SDS011;42945;51.718;5.324;2023-06-22T08:11:47;22.90;;;17.30;;
57055;SDS011;42945;51.718;5.324;2023-06-22T08:14:14;24.48;;;17.17;;
57055;SDS011;42945;51.718;5.324;2023-06-22T08:16:39;24.98;;;16.92;;
57055;SDS011;42945;51.718;5.324;2023-06-22T08:19:05;28.20;;;15.80;;
57055;SDS011;42945;51.718;5.324;2023-06-22T08:21:31;23.55;;;16.33;;
57055;SDS011;42945;51.718;5.324;2023-06-22T08:23:56;22.15;;;16.38;;
57055;SDS011;42945;51.718;5.324;2023-06-22T08:26:21;23.30;;;16.33;;
57055;SDS011;42945;51.718;5.324;2023-06-22T08:28:46;20.00;;;15.48;;
57055;SDS011;42945;51.718;5.324;2023-06-22T08:31:12;22.58;;;15.88;;
57055;SDS011;42945;51.718;5.324;2023-06-22T08:33:38;25.23;;;16.98;;
57055;SDS011;42945;51.718;5.324;2023-06-22T08:36:04;26.88;;;16.52;;
57055;SDS011;42945;51.718;5.324;2023-06-22T08:38:31;26.05;;;15.35;;
57055;SDS011;42945;51.718;5.324;2023-06-22T08:40:56;25.27;;;15.07;;
57055;SDS011;42945;51.718;5.324;2023-06-22T08:43:22;22.30;;;15.38;;
57055;SDS011;42945;51.718;5.324;2023-06-22T08:45:47;23.10;;;14.80;;
57055;SDS011;42945;51.718;5.324;2023-06-22T08:48:12;27.92;;;15.32;;
57055;SDS011;42945;51.718;5.324;2023-06-22T08:50:38;21.40;;;15.52;;
57055;SDS011;42945;51.718;5.324;2023-06-22T08:53:05;18.17;;;13.20;;
57055;SDS011;42945;51.718;5.324;2023-06-22T08:55:31;21.75;;;13.32;;
57055;SDS011;42945;51.718;5.324;2023-06-22T08:57:56;21.67;;;13.48;;
57055;SDS011;42945;51.718;5.324;2023-06-22T09:00:22;18.63;;;12.30;;
57055;SDS011;42945;51.718;5.324;2023-06-22T09:02:47;18.25;;;13.77;;
57055;SDS011;42945;51.718;5.324;2023-06-22T09:05:13;19.85;;;12.40;;
57055;SDS011;42945;51.718;5.324;2023-06-22T09:07:39;14.20;;;11.95;;
57055;SDS011;42945;51.718;5.324;2023-06-22T09:10:05;16.15;;;12.32;;
57055;SDS011;42945;51.718;5.324;2023-06-22T09:12:31;17.70;;;12.18;;
57055;SDS011;42945;51.718;5.324;2023-06-22T09:14:58;16.55;;;11.85;;
57055;SDS011;42945;51.718;5.324;2023-06-22T09:17:26;14.80;;;11.02;;
57055;SDS011;42945;51.718;5.324;2023-06-22T09:19:52;16.60;;;10.93;;
57055;SDS011;42945;51.718;5.324;2023-06-22T09:22:17;17.48;;;11.05;;
57055;SDS011;42945;51.718;5.324;2023-06-22T09:24:42;16.05;;;10.93;;
57055;SDS011;42945;51.718;5.324;2023-06-22T09:27:08;15.02;;;10.32;;
57055;SDS011;42945;51.718;5.324;2023-06-22T09:29:33;14.52;;;10.20;;
57055;SDS011;42945;51.718;5.324;2023-06-22T09:31:59;16.02;;;9.40;;
57055;SDS011;42945;51.718;5.324;2023-06-22T09:34:27;14.00;;;8.95;;
57055;SDS011;42945;51.718;5.324;2023-06-22T09:36:52;14.43;;;9.38;;
57055;SDS011;42945;51.718;5.324;2023-06-22T09:39:18;11.98;;;8.30;;
57055;SDS011;42945;51.718;5.324;2023-06-22T09:41:43;17.30;;;10.65;;
57055;SDS011;42945;51.718;5.324;2023-06-22T09:44:15;18.35;;;10.07;;
57055;SDS011;42945;51.718;5.324;2023-06-22T09:46:41;16.20;;;10.18;;
57055;SDS011;42945;51.718;5.324;2023-06-22T09:49:06;17.50;;;10.70;;
57055;SDS011;42945;51.718;5.324;2023-06-22T09:51:34;15.27;;;9.98;;
57055;SDS011;42945;51.718;5.324;2023-06-22T09:54:00;15.77;;;9.75;;
57055;SDS011;42945;51.718;5.324;2023-06-22T09:56:25;12.90;;;9.80;;
57055;SDS011;42945;51.718;5.324;2023-06-22T09:58:53;12.57;;;9.05;;
57055;SDS011;42945;51.718;5.324;2023-06-22T10:01:19;16.33;;;8.50;;
57055;SDS011;42945;51.718;5.324;2023-06-22T10:03:45;15.27;;;8.48;;
57055;SDS011;42945;51.718;5.324;2023-06-22T10:06:11;12.15;;;8.75;;
57055;SDS011;42945;51.718;5.324;2023-06-22T10:08:36;12.32;;;8.70;;
57055;SDS011;42945;51.718;5.324;2023-06-22T10:11:02;12.57;;;8.85;;
57055;SDS011;42945;51.718;5.324;2023-06-22T10:13:28;13.82;;;9.18;;
57055;SDS011;42945;51.718;5.324;2023-06-22T10:15:54;13.73;;;9.07;;
57055;SDS011;42945;51.718;5.324;2023-06-22T10:18:19;16.02;;;8.82;;
57055;SDS011;42945;51.718;5.324;2023-06-22T10:20:47;12.55;;;8.82;;
57055;SDS011;42945;51.718;5.324;2023-06-22T10:23:13;12.13;;;8.60;;
57055;SDS011;42945;51.718;5.324;2023-06-22T10:25:39;13.75;;;8.63;;
57055;SDS011;42945;51.718;5.324;2023-06-22T10:28:04;13.43;;;8.40;;
57055;SDS011;42945;51.718;5.324;2023-06-22T10:30:29;15.98;;;8.20;;
57055;SDS011;42945;51.718;5.324;2023-06-22T10:32:55;13.00;;;7.95;;
57055;SDS011;42945;51.718;5.324;2023-06-22T10:35:20;14.15;;;7.75;;
57055;SDS011;42945;51.718;5.324;2023-06-22T10:37:46;13.18;;;7.05;;
57055;SDS011;42945;51.718;5.324;2023-06-22T10:40:15;12.23;;;7.47;;
57055;SDS011;42945;51.718;5.324;2023-06-22T10:42:42;12.30;;;7.93;;
57055;SDS011;42945;51.718;5.324;2023-06-22T10:45:07;10.95;;;7.57;;
57055;SDS011;42945;51.718;5.324;2023-06-22T10:47:33;16.35;;;8.07;;
57055;SDS011;42945;51.718;5.324;2023-06-22T10:49:59;10.85;;;7.20;;
57055;SDS011;42945;51.718;5.324;2023-06-22T10:52:26;13.43;;;8.10;;
57055;SDS011;42945;51.718;5.324;2023-06-22T10:54:51;11.40;;;8.73;;
57055;SDS011;42945;51.718;5.324;2023-06-22T10:57:17;12.73;;;8.27;;
57055;SDS011;42945;51.718;5.324;2023-06-22T10:59:43;12.95;;;7.85;;
57055;SDS011;42945;51.718;5.324;2023-06-22T11:02:09;11.77;;;7.80;;
57055;SDS011;42945;51.718;5.324;2023-06-22T11:04:34;11.52;;;7.85;;
57055;SDS011;42945;51.718;5.324;2023-06-22T11:07:00;15.48;;;8.25;;
57055;SDS011;42945;51.718;5.324;2023-06-22T11:09:25;11.43;;;8.18;;
57055;SDS011;42945;51.718;5.324;2023-06-22T11:11:51;11.65;;;7.65;;
57055;SDS011;42945;51.718;5.324;2023-06-22T11:14:21;10.80;;;7.72;;
57055;SDS011;42945;51.718;5.324;2023-06-22T11:16:47;11.10;;;7.88;;
57055;SDS011;42945;51.718;5.324;2023-06-22T11:19:13;12.98;;;7.65;;
57055;SDS011;42945;51.718;5.324;2023-06-22T11:21:38;11.85;;;7.22;;
57055;SDS011;42945;51.718;5.324;2023-06-22T11:24:04;9.70;;;6.82;;
57055;SDS011;42945;51.718;5.324;2023-06-22T11:26:30;11.70;;;7.50;;
57055;SDS011;42945;51.718;5.324;2023-06-22T11:28:56;12.65;;;7.43;;
57055;SDS011;42945;51.718;5.324;2023-06-22T11:31:22;12.82;;;7.72;;
57055;SDS011;42945;51.718;5.324;2023-06-22T11:33:47;12.73;;;7.78;;
57055;SDS011;42945;51.718;5.324;2023-06-22T11:36:13;11.13;;;7.57;;
57055;SDS011;42945;51.718;5.324;2023-06-22T11:38:39;11.27;;;8.02;;
57055;SDS011;42945;51.718;5.324;2023-06-22T11:41:05;12.85;;;8.52;;
57055;SDS011;42945;51.718;5.324;2023-06-22T11:43:31;14.57;;;8.43;;
57055;SDS011;42945;51.718;5.324;2023-06-22T11:45:56;14.73;;;8.68;;
57055;SDS011;42945;51.718;5.324;2023-06-22T11:48:23;11.93;;;8.68;;
57055;SDS011;42945;51.718;5.324;2023-06-22T11:50:49;12.50;;;9.23;;
57055;SDS011;42945;51.718;5.324;2023-06-22T11:53:14;15.27;;;9.65;;
57055;SDS011;42945;51.718;5.324;2023-06-22T11:55:41;18.40;;;10.32;;
57055;SDS011;42945;51.718;5.324;2023-06-22T11:58:07;14.20;;;9.55;;
57055;SDS011;42945;51.718;5.324;2023-06-22T12:00:33;14.77;;;9.98;;
57055;SDS011;42945;51.718;5.324;2023-06-22T12:02:58;16.17;;;10.63;;
57055;SDS011;42945;51.718;5.324;2023-06-22T12:05:24;18.92;;;10.48;;
57055;SDS011;42945;51.718;5.324;2023-06-22T12:07:49;15.55;;;10.68;;
57055;SDS011;42945;51.718;5.324;2023-06-22T12:10:17;18.58;;;12.10;;
57055;SDS011;42945;51.718;5.324;2023-06-22T12:12:43;16.77;;;12.18;;
57055;SDS011;42945;51.718;5.324;2023-06-22T12:15:09;19.13;;;13.05;;
57055;SDS011;42945;51.718;5.324;2023-06-22T12:17:35;23.98;;;14.60;;
57055;SDS011;42945;51.718;5.324;2023-06-22T12:20:01;19.05;;;13.48;;
57055;SDS011;42945;51.718;5.324;2023-06-22T12:22:30;19.73;;;14.88;;
57055;SDS011;42945;51.718;5.324;2023-06-22T12:24:58;20.33;;;15.25;;
57055;SDS011;42945;51.718;5.324;2023-06-22T12:27:24;20.35;;;15.13;;
57055;SDS011;42945;51.718;5.324;2023-06-22T12:29:50;21.95;;;15.82;;
57055;SDS011;42945;51.718;5.324;2023-06-22T12:32:16;20.20;;;15.15;;
57055;SDS011;42945;51.718;5.324;2023-06-22T12:34:42;25.65;;;15.60;;
57055;SDS011;42945;51.718;5.324;2023-06-22T12:37:08;24.85;;;16.40;;
57055;SDS011;42945;51.718;5.324;2023-06-22T12:39:33;24.38;;;15.73;;
57055;SDS011;42945;51.718;5.324;2023-06-22T12:41:59;21.00;;;14.73;;
57055;SDS011;42945;51.718;5.324;2023-06-22T12:44:25;21.60;;;15.23;;
57055;SDS011;42945;51.718;5.324;2023-06-22T12:46:50;24.52;;;15.70;;
57055;SDS011;42945;51.718;5.324;2023-06-22T12:49:16;25.92;;;15.93;;
57055;SDS011;42945;51.718;5.324;2023-06-22T12:51:41;22.42;;;15.65;;
57055;SDS011;42945;51.718;5.324;2023-06-22T12:54:08;26.48;;;16.33;;
57055;SDS011;42945;51.718;5.324;2023-06-22T12:56:34;19.75;;;15.18;;
57055;SDS011;42945;51.718;5.324;2023-06-22T12:58:59;23.42;;;17.00;;
57055;SDS011;42945;51.718;5.324;2023-06-22T13:01:27;22.58;;;16.92;;
57055;SDS011;42945;51.718;5.324;2023-06-22T13:03:52;24.67;;;17.10;;
57055;SDS011;42945;51.718;5.324;2023-06-22T13:06:18;26.30;;;17.10;;
57055;SDS011;42945;51.718;5.324;2023-06-22T13:08:43;23.00;;;17.30;;
57055;SDS011;42945;51.718;5.324;2023-06-22T13:11:09;30.95;;;18.80;;
57055;SDS011;42945;51.718;5.324;2023-06-22T13:13:34;25.92;;;18.95;;
57055;SDS011;42945;51.718;5.324;2023-06-22T13:15:59;25.13;;;18.75;;
57055;SDS011;42945;51.718;5.324;2023-06-22T13:18:25;23.77;;;17.33;;
57055;SDS011;42945;51.718;5.324;2023-06-22T13:20:50;27.88;;;19.77;;
57055;SDS011;42945;51.718;5.324;2023-06-22T13:23:15;34.42;;;22.15;;
57055;SDS011;42945;51.718;5.324;2023-06-22T13:25:41;29.70;;;20.02;;
57055;SDS011;42945;51.718;5.324;2023-06-22T13:28:06;32.50;;;21.90;;
57055;SDS011;42945;51.718;5.324;2023-06-22T13:30:32;30.55;;;19.55;;
57055;SDS011;42945;51.718;5.324;2023-06-22T13:32:58;29.27;;;19.95;;
57055;SDS011;42945;51.718;5.324;2023-06-22T13:35:23;25.45;;;19.48;;
57055;SDS011;42945;51.718;5.324;2023-06-22T13:37:48;31.35;;;20.75;;
57055;SDS011;42945;51.718;5.324;2023-06-22T13:40:14;31.23;;;21.55;;
57055;SDS011;42945;51.718;5.324;2023-06-22T13:42:39;31.13;;;21.95;;
57055;SDS011;42945;51.718;5.324;2023-06-22T13:45:05;27.90;;;20.50;;
57055;SDS011;42945;51.718;5.324;2023-06-22T13:47:32;30.13;;;22.17;;
57055;SDS011;42945;51.718;5.324;2023-06-22T13:49:57;27.17;;;20.50;;
57055;SDS011;42945;51.718;5.324;2023-06-22T13:52:23;26.83;;;20.02;;
57055;SDS011;42945;51.718;5.324;2023-06-22T13:54:48;26.83;;;20.25;;
57055;SDS011;42945;51.718;5.324;2023-06-22T13:57:14;25.92;;;19.45;;
57055;SDS011;42945;51.718;5.324;2023-06-22T13:59:39;29.10;;;19.40;;
57055;SDS011;42945;51.718;5.324;2023-06-22T14:02:05;22.85;;;16.80;;
57055;SDS011;42945;51.718;5.324;2023-06-22T14:04:31;24.77;;;17.58;;
57055;SDS011;42945;51.718;5.324;2023-06-22T14:06:56;24.85;;;18.02;;
57055;SDS011;42945;51.718;5.324;2023-06-22T14:09:21;23.73;;;18.40;;
57055;SDS011;42945;51.718;5.324;2023-06-22T14:11:47;28.10;;;17.88;;
57055;SDS011;42945;51.718;5.324;2023-06-22T14:14:12;29.25;;;19.48;;
57055;SDS011;42945;51.718;5.324;2023-06-22T14:16:37;25.85;;;18.73;;
57055;SDS011;42945;51.718;5.324;2023-06-22T14:19:03;29.40;;;19.33;;
57055;SDS011;42945;51.718;5.324;2023-06-22T14:21:28;28.08;;;19.52;;